Time;durP1;ratioP1;P1;durP2;ratioP2;P2;SDS_P1;SDS_P2;PMS_P1;PMS_P2;Temp;Humidity;BMP_temperature;BMP_pressure;BME280_temperature;BME280_humidity;BME280_pressure;Samples;Min_cycle;Max_cycle;Signal;HPM_P1;HPM_P2
2021/07/06 00:00:35;;;;;;;10.70;6.18;;;;;;;;;;5010738;28;20095;-76
2021/07/06 00:03:01;;;;;;;9.45;5.65;;;;;;;;;;5010722;28;20042;-77
2021/07/06 00:05:27;;;;;;;10.68;5.68;;;;;;;;;;5009159;28;20080;-77
2021/07/06 00:07:53;;;;;;;9.27;5.53;;;;;;;;;;5010285;28;20041;-76
2021/07/06 00:10:22;;;;;;;10.20;5.65;;;;;;;;;;5008405;28;20508;-76
2021/07/06 00:12:48;;;;;;;14.20;5.88;;;;;;;;;;5009620;28;20028;-76
2021/07/06 00:15:19;;;;;;;14.52;6.18;;;;;;;;;;5009779;28;20470;-76
2021/07/06 00:17:44;;;;;;;9.57;5.93;;;;;;;;;;5007965;28;20033;-77
2021/07/06 00:20:12;;;;;;;17.60;6.32;;;;;;;;;;5009629;28;20026;-76
2021/07/06 00:22:43;;;;;;;9.93;5.50;;;;;;;;;;5007815;28;20069;-75
2021/07/06 00:25:10;;;;;;;10.93;6.13;;;;;;;;;;5008033;28;20037;-75
2021/07/06 00:27:36;;;;;;;12.57;6.68;;;;;;;;;;5007442;28;20045;-75
2021/07/06 00:30:03;;;;;;;9.05;6.18;;;;;;;;;;5007763;28;20033;-77
2021/07/06 00:32:28;;;;;;;11.35;6.30;;;;;;;;;;5008147;28;20040;-77
2021/07/06 00:34:54;;;;;;;11.15;6.35;;;;;;;;;;5009706;28;20113;-77
2021/07/06 00:37:19;;;;;;;12.90;7.05;;;;;;;;;;5009901;28;20041;-77
2021/07/06 00:39:45;;;;;;;10.45;6.55;;;;;;;;;;5009978;28;20426;-77
2021/07/06 00:42:10;;;;;;;12.10;7.30;;;;;;;;;;5009589;28;20029;-77
2021/07/06 00:44:36;;;;;;;10.13;6.80;;;;;;;;;;5009183;28;20148;-76
2021/07/06 00:47:04;;;;;;;10.77;7.25;;;;;;;;;;5008190;28;20034;-76
2021/07/06 00:49:29;;;;;;;11.45;7.13;;;;;;;;;;5009868;28;20246;-76
2021/07/06 00:51:55;;;;;;;12.35;6.75;;;;;;;;;;5009731;28;20040;-76
2021/07/06 00:54:20;;;;;;;10.13;7.32;;;;;;;;;;5009580;28;20030;-76
2021/07/06 00:56:46;;;;;;;12.95;7.30;;;;;;;;;;5009407;28;20371;-76
2021/07/06 00:59:15;;;;;;;11.85;7.53;;;;;;;;;;5008594;28;20117;-77
2021/07/06 01:01:41;;;;;;;11.82;6.93;;;;;;;;;;5008600;28;20470;-76
2021/07/06 01:04:07;;;;;;;10.43;6.57;;;;;;;;;;5007546;28;20045;-76
2021/07/06 01:06:32;;;;;;;9.20;6.90;;;;;;;;;;5009728;28;20036;-77
2021/07/06 01:08:59;;;;;;;13.60;7.13;;;;;;;;;;5009651;28;20104;-76
2021/07/06 01:11:24;;;;;;;10.02;6.57;;;;;;;;;;5009883;28;20064;-76
2021/07/06 01:13:50;;;;;;;12.25;6.90;;;;;;;;;;5008113;28;20053;-76
2021/07/06 01:16:16;;;;;;;11.10;6.63;;;;;;;;;;5009625;28;20034;-77
2021/07/06 01:18:43;;;;;;;17.90;8.32;;;;;;;;;;5007735;28;20404;-76
2021/07/06 01:21:08;;;;;;;13.02;7.45;;;;;;;;;;5008419;28;20099;-76
2021/07/06 01:23:34;;;;;;;9.00;6.10;;;;;;;;;;5009338;28;20466;-76
2021/07/06 01:26:04;;;;;;;10.25;6.03;;;;;;;;;;5009268;28;20030;-76
2021/07/06 01:28:29;;;;;;;16.40;6.30;;;;;;;;;;5008151;28;20440;-76
2021/07/06 01:30:55;;;;;;;11.00;6.28;;;;;;;;;;5009400;28;20113;-76
2021/07/06 01:33:24;;;;;;;9.30;6.40;;;;;;;;;;5008340;28;20041;-76
2021/07/06 01:35:51;;;;;;;8.57;5.60;;;;;;;;;;5009209;28;20505;-77
2021/07/06 01:38:17;;;;;;;9.10;5.70;;;;;;;;;;5008068;28;20478;-76
2021/07/06 01:40:43;;;;;;;9.88;5.80;;;;;;;;;;5009267;28;20052;-77
2021/07/06 01:43:08;;;;;;;12.30;6.10;;;;;;;;;;5007867;28;20030;-75
2021/07/06 01:45:34;;;;;;;9.88;6.03;;;;;;;;;;5009508;28;20029;-76
2021/07/06 01:48:01;;;;;;;9.15;6.28;;;;;;;;;;5009494;28;20486;-76
2021/07/06 01:50:28;;;;;;;10.23;5.63;;;;;;;;;;5009634;28;20577;-78
2021/07/06 01:52:56;;;;;;;9.63;6.60;;;;;;;;;;5009199;28;20030;-76
2021/07/06 01:55:27;;;;;;;13.23;6.30;;;;;;;;;;5008066;28;20092;-76
2021/07/06 01:57:54;;;;;;;11.00;6.18;;;;;;;;;;5009370;28;20053;-76
2021/07/06 02:00:21;;;;;;;9.90;6.20;;;;;;;;;;5008125;28;20041;-77
2021/07/06 02:02:49;;;;;;;13.35;6.13;;;;;;;;;;5007850;28;20068;-77
2021/07/06 02:05:14;;;;;;;9.65;5.75;;;;;;;;;;5008008;28;20080;-76
2021/07/06 02:07:41;;;;;;;12.70;6.07;;;;;;;;;;5023860;28;20034;-76
2021/07/06 02:10:08;;;;;;;12.82;6.15;;;;;;;;;;5009150;28;20127;-77
2021/07/06 02:12:33;;;;;;;11.85;7.10;;;;;;;;;;5009201;28;20029;-76
2021/07/06 02:15:00;;;;;;;15.68;7.25;;;;;;;;;;5011113;28;20621;-76
2021/07/06 02:17:26;;;;;;;12.90;7.00;;;;;;;;;;5011704;28;20026;-76
2021/07/06 02:19:51;;;;;;;15.18;7.85;;;;;;;;;;5012429;28;20087;-75
2021/07/06 02:22:17;;;;;;;12.55;7.43;;;;;;;;;;5012662;28;20030;-76
2021/07/06 02:24:42;;;;;;;11.88;7.13;;;;;;;;;;5012351;28;20033;-76
2021/07/06 02:27:08;;;;;;;11.93;7.60;;;;;;;;;;5012617;28;20030;-76
2021/07/06 02:29:33;;;;;;;10.23;6.70;;;;;;;;;;5012596;28;20022;-76
2021/07/06 02:31:59;;;;;;;23.15;8.30;;;;;;;;;;5010836;28;20041;-75
2021/07/06 02:34:24;;;;;;;15.68;7.53;;;;;;;;;;5011055;28;20075;-76
2021/07/06 02:36:50;;;;;;;10.50;6.88;;;;;;;;;;5012159;28;20022;-76
2021/07/06 02:39:15;;;;;;;11.00;6.95;;;;;;;;;;5012399;28;20026;-76
2021/07/06 02:41:41;;;;;;;14.52;7.45;;;;;;;;;;5012137;28;20038;-74
2021/07/06 02:44:06;;;;;;;10.23;6.95;;;;;;;;;;5011173;28;20038;-77
2021/07/06 02:46:32;;;;;;;10.40;7.05;;;;;;;;;;5011581;28;20037;-76
2021/07/06 02:48:57;;;;;;;9.20;6.65;;;;;;;;;;5014259;28;20036;-76
2021/07/06 02:51:23;;;;;;;10.93;7.18;;;;;;;;;;5016317;28;20073;-77
2021/07/06 02:53:49;;;;;;;10.00;7.22;;;;;;;;;;5011966;28;20114;-76
2021/07/06 02:56:14;;;;;;;10.52;6.95;;;;;;;;;;5012027;28;20470;-77
2021/07/06 02:58:40;;;;;;;9.90;6.95;;;;;;;;;;5010386;28;20390;-75
2021/07/06 03:01:05;;;;;;;10.32;6.30;;;;;;;;;;5011492;28;20124;-77
2021/07/06 03:03:31;;;;;;;9.82;6.30;;;;;;;;;;5011776;28;20033;-76
2021/07/06 03:05:56;;;;;;;9.18;6.60;;;;;;;;;;5011409;28;20326;-75
2021/07/06 03:08:22;;;;;;;9.88;5.85;;;;;;;;;;5011345;28;20034;-76
2021/07/06 03:10:47;;;;;;;9.70;6.25;;;;;;;;;;5012199;28;20022;-78
2021/07/06 03:13:12;;;;;;;10.20;6.80;;;;;;;;;;5011766;28;20537;-76
2021/07/06 03:15:39;;;;;;;11.27;6.30;;;;;;;;;;5012036;28;20026;-76
2021/07/06 03:18:06;;;;;;;13.00;6.47;;;;;;;;;;5010127;28;20140;-76
2021/07/06 03:20:32;;;;;;;8.20;6.35;;;;;;;;;;5012002;28;20089;-76
2021/07/06 03:22:59;;;;;;;10.75;6.20;;;;;;;;;;5011161;28;20034;-76
2021/07/06 03:25:26;;;;;;;7.22;5.18;;;;;;;;;;5010792;28;20056;-76
2021/07/06 03:27:53;;;;;;;14.75;7.35;;;;;;;;;;5009327;28;20041;-76
2021/07/06 03:30:24;;;;;;;10.57;6.32;;;;;;;;;;5011244;28;20030;-76
2021/07/06 03:32:52;;;;;;;11.70;6.57;;;;;;;;;;5009601;28;20378;-77
2021/07/06 03:35:18;;;;;;;10.02;6.70;;;;;;;;;;5011599;28;20057;-76
2021/07/06 03:37:44;;;;;;;7.68;5.50;;;;;;;;;;5009753;28;20114;-74
2021/07/06 03:40:10;;;;;;;9.55;6.05;;;;;;;;;;5009776;28;20549;-76
2021/07/06 03:42:37;;;;;;;12.35;6.13;;;;;;;;;;5011215;28;20018;-76
2021/07/06 03:45:04;;;;;;;11.25;6.57;;;;;;;;;;5009435;28;20425;-75
2021/07/06 03:47:30;;;;;;;8.65;6.38;;;;;;;;;;5009562;28;20034;-75
2021/07/06 03:49:55;;;;;;;8.52;6.50;;;;;;;;;;5010646;28;20037;-75
2021/07/06 03:52:20;;;;;;;10.15;6.88;;;;;;;;;;5009380;28;20436;-76
2021/07/06 03:54:46;;;;;;;8.68;6.50;;;;;;;;;;5010503;28;20069;-75
2021/07/06 03:57:11;;;;;;;10.02;6.05;;;;;;;;;;5009160;28;20054;-77
2021/07/06 03:59:37;;;;;;;20.25;10.27;;;;;;;;;;5025942;28;20063;-75
2021/07/06 04:02:04;;;;;;;10.70;5.95;;;;;;;;;;5010373;28;20278;-76
2021/07/06 04:04:29;;;;;;;16.52;5.65;;;;;;;;;;5010888;28;20052;-77
2021/07/06 04:06:55;;;;;;;23.02;6.22;;;;;;;;;;5010359;28;20475;-77
2021/07/06 04:09:20;;;;;;;21.27;6.75;;;;;;;;;;5009155;28;20550;-76
2021/07/06 04:11:46;;;;;;;8.15;5.15;;;;;;;;;;5008800;28;20029;-75
2021/07/06 04:14:11;;;;;;;9.30;5.57;;;;;;;;;;5009096;28;20156;-76
2021/07/06 04:16:38;;;;;;;8.40;5.40;;;;;;;;;;5010554;28;20022;-77
2021/07/06 04:19:06;;;;;;;10.80;6.20;;;;;;;;;;5010119;28;20387;-76
2021/07/06 04:21:33;;;;;;;10.48;6.00;;;;;;;;;;5008936;28;20030;-77
2021/07/06 04:23:59;;;;;;;9.13;5.80;;;;;;;;;;5010121;28;20452;-76
2021/07/06 04:26:24;;;;;;;16.35;5.15;;;;;;;;;;5008874;28;20021;-75
2021/07/06 04:28:50;;;;;;;9.68;5.47;;;;;;;;;;5008735;28;20030;-76
2021/07/06 04:31:15;;;;;;;7.55;5.03;;;;;;;;;;5008635;28;20045;-77
2021/07/06 04:33:41;;;;;;;14.30;12.00;;;;;;;;;;5008738;28;20026;-76
2021/07/06 04:36:06;;;;;;;5.97;4.63;;;;;;;;;;5024851;28;20034;-77
2021/07/06 04:38:32;;;;;;;6.50;4.80;;;;;;;;;;5009840;28;20028;-76
2021/07/06 04:40:57;;;;;;;6.78;4.43;;;;;;;;;;5010093;28;20113;-76
2021/07/06 04:43:23;;;;;;;8.38;5.20;;;;;;;;;;5025090;28;20030;-76
2021/07/06 04:45:49;;;;;;;8.60;5.43;;;;;;;;;;5009563;28;20521;-76
2021/07/06 04:48:15;;;;;;;11.38;6.25;;;;;;;;;;5009929;28;20032;-75
2021/07/06 04:50:40;;;;;;;7.93;5.22;;;;;;;;;;5010106;28;20512;-77
2021/07/06 04:53:07;;;;;;;7.13;5.47;;;;;;;;;;5008246;28;20452;-77
2021/07/06 04:55:35;;;;;;;12.13;4.97;;;;;;;;;;5008441;28;20064;-77
2021/07/06 04:58:01;;;;;;;8.60;6.45;;;;;;;;;;5009233;28;20041;-76
2021/07/06 05:00:26;;;;;;;7.90;5.20;;;;;;;;;;5008213;28;20026;-77
2021/07/06 05:02:52;;;;;;;6.43;5.43;;;;;;;;;;5009736;28;20378;-76
2021/07/06 05:05:18;;;;;;;6.78;5.25;;;;;;;;;;5009723;28;20022;-77
2021/07/06 05:07:44;;;;;;;12.50;6.68;;;;;;;;;;5009448;28;20064;-76
2021/07/06 05:10:11;;;;;;;6.35;4.15;;;;;;;;;;5007986;28;20061;-77
2021/07/06 05:12:37;;;;;;;5.40;4.53;;;;;;;;;;5009518;28;20444;-77
2021/07/06 05:15:05;;;;;;;5.85;3.60;;;;;;;;;;5009759;28;20152;-77
2021/07/06 05:17:30;;;;;;;6.57;4.65;;;;;;;;;;5009920;28;20021;-77
2021/07/06 05:19:57;;;;;;;5.57;3.50;;;;;;;;;;5009182;28;20501;-77
2021/07/06 05:22:22;;;;;;;5.85;3.80;;;;;;;;;;5009647;28;20028;-76
2021/07/06 05:24:48;;;;;;;9.95;4.30;;;;;;;;;;5009286;28;20101;-77
2021/07/06 05:27:14;;;;;;;8.13;3.90;;;;;;;;;;5007638;28;20057;-77
2021/07/06 05:29:40;;;;;;;5.10;3.63;;;;;;;;;;5009377;28;20057;-75
2021/07/06 05:32:06;;;;;;;5.53;3.65;;;;;;;;;;5009065;28;20026;-77
2021/07/06 05:34:31;;;;;;;9.52;3.88;;;;;;;;;;5009380;28;20029;-75
2021/07/06 05:36:57;;;;;;;7.53;4.25;;;;;;;;;;5007609;28;20060;-77
2021/07/06 05:39:22;;;;;;;8.85;3.88;;;;;;;;;;5007852;28;20026;-77
2021/07/06 05:41:49;;;;;;;6.72;3.50;;;;;;;;;;5008072;28;20022;-76
2021/07/06 05:44:16;;;;;;;3.70;3.20;;;;;;;;;;5007737;28;20030;-77
2021/07/06 05:46:42;;;;;;;7.13;3.40;;;;;;;;;;5009148;28;20034;-77
2021/07/06 05:49:07;;;;;;;6.82;3.40;;;;;;;;;;5012243;28;20029;-77
2021/07/06 05:51:34;;;;;;;5.85;3.60;;;;;;;;;;5018160;28;20022;-75
2021/07/06 05:54:00;;;;;;;8.10;2.85;;;;;;;;;;5013900;28;20030;-76
2021/07/06 05:56:25;;;;;;;5.55;2.88;;;;;;;;;;5011865;28;20021;-73
2021/07/06 05:58:51;;;;;;;6.25;3.20;;;;;;;;;;5013113;28;20046;-74
2021/07/06 06:01:17;;;;;;;5.40;3.10;;;;;;;;;;5011767;28;20475;-73
2021/07/06 06:03:43;;;;;;;4.35;3.22;;;;;;;;;;5013380;28;20026;-75
2021/07/06 06:06:09;;;;;;;4.03;2.75;;;;;;;;;;5011918;28;20029;-74
2021/07/06 06:08:38;;;;;;;4.57;2.80;;;;;;;;;;5012004;28;20018;-74
2021/07/06 06:11:04;;;;;;;7.32;3.40;;;;;;;;;;5012960;28;20024;-75
2021/07/06 06:13:30;;;;;;;5.13;3.70;;;;;;;;;;5012132;28;20025;-75
2021/07/06 06:15:56;;;;;;;16.50;4.88;;;;;;;;;;5012992;28;20481;-74
2021/07/06 06:18:21;;;;;;;3.83;2.95;;;;;;;;;;5012199;28;20022;-74
2021/07/06 06:20:47;;;;;;;4.97;2.97;;;;;;;;;;5012959;28;20076;-73
2021/07/06 06:23:13;;;;;;;4.43;2.90;;;;;;;;;;5012762;28;20114;-75
2021/07/06 06:25:38;;;;;;;3.85;2.38;;;;;;;;;;5013054;28;20022;-73
2021/07/06 06:28:04;;;;;;;14.13;2.90;;;;;;;;;;5012333;28;20056;-73
2021/07/06 06:30:29;;;;;;;3.20;2.70;;;;;;;;;;5012597;28;20112;-73
2021/07/06 06:32:55;;;;;;;2.88;1.80;;;;;;;;;;5012409;28;20026;-74
2021/07/06 06:35:25;;;;;;;2.97;2.58;;;;;;;;;;5012820;28;20017;-74
2021/07/06 06:37:51;;;;;;;6.68;3.10;;;;;;;;;;5012388;28;20497;-74
2021/07/06 06:40:17;;;;;;;4.35;2.70;;;;;;;;;;5010609;28;20030;-74
2021/07/06 06:42:42;;;;;;;4.30;2.70;;;;;;;;;;5010789;28;20105;-74
2021/07/06 06:45:10;;;;;;;5.25;2.80;;;;;;;;;;5011994;28;20026;-73
2021/07/06 06:47:36;;;;;;;4.85;2.78;;;;;;;;;;5010686;28;20064;-73
2021/07/06 06:50:04;;;;;;;4.93;3.00;;;;;;;;;;5011104;28;20068;-74
2021/07/06 06:52:30;;;;;;;3.88;2.78;;;;;;;;;;5011471;28;20504;-73
2021/07/06 06:54:55;;;;;;;5.85;2.38;;;;;;;;;;5010677;28;20053;-73
2021/07/06 06:57:21;;;;;;;5.95;3.00;;;;;;;;;;5012159;28;20073;-75
2021/07/06 06:59:49;;;;;;;9.43;2.65;;;;;;;;;;5011956;28;20033;-73
2021/07/06 07:02:19;;;;;;;7.95;3.15;;;;;;;;;;5010688;28;20034;-74
2021/07/06 07:04:49;;;;;;;4.93;3.38;;;;;;;;;;5010737;28;20022;-75
2021/07/06 07:07:15;;;;;;;2.92;2.65;;;;;;;;;;5011999;28;20101;-79
2021/07/06 07:09:41;;;;;;;2.95;2.22;;;;;;;;;;5009999;28;20382;-78
2021/07/06 07:12:07;;;;;;;5.45;2.30;;;;;;;;;;5011679;28;20033;-77
2021/07/06 07:14:34;;;;;;;2.67;2.17;;;;;;;;;;5011630;28;20095;-79
2021/07/06 07:16:59;;;;;;;5.30;2.28;;;;;;;;;;5011764;28;20033;-79
2021/07/06 07:19:25;;;;;;;4.85;2.15;;;;;;;;;;5010575;28;20394;-79
2021/07/06 07:21:50;;;;;;;4.07;2.00;;;;;;;;;;5011555;28;20033;-78
2021/07/06 07:24:16;;;;;;;2.85;1.88;;;;;;;;;;5011543;28;20466;-79
2021/07/06 07:26:42;;;;;;;4.95;2.17;;;;;;;;;;5011397;28;20088;-78
2021/07/06 07:29:07;;;;;;;10.25;2.10;;;;;;;;;;5009913;28;20033;-78
2021/07/06 07:31:33;;;;;;;6.82;2.75;;;;;;;;;;5010286;28;20029;-79
2021/07/06 07:33:59;;;;;;;2.00;1.77;;;;;;;;;;5011510;28;20108;-78
2021/07/06 07:36:26;;;;;;;6.50;2.10;;;;;;;;;;5010018;28;20021;-79
2021/07/06 07:38:53;;;;;;;2.65;1.55;;;;;;;;;;5011418;28;20021;-79
2021/07/06 07:41:18;;;;;;;2.85;1.55;;;;;;;;;;5009816;28;20453;-78
2021/07/06 07:43:44;;;;;;;8.35;2.10;;;;;;;;;;5011180;28;20030;-78
2021/07/06 07:46:10;;;;;;;3.30;2.00;;;;;;;;;;5010771;28;20068;-78
2021/07/06 07:48:36;;;;;;;3.75;1.88;;;;;;;;;;5011253;28;20032;-80
2021/07/06 07:51:02;;;;;;;3.67;1.70;;;;;;;;;;5010686;28;20034;-80
2021/07/06 07:53:27;;;;;;;4.18;1.98;;;;;;;;;;5011175;28;20036;-80
2021/07/06 07:55:53;;;;;;;3.58;1.98;;;;;;;;;;5010803;28;20478;-79
2021/07/06 07:58:19;;;;;;;3.58;1.55;;;;;;;;;;5010396;28;20049;-79
2021/07/06 08:00:45;;;;;;;4.32;1.77;;;;;;;;;;5010999;28;20479;-81
2021/07/06 08:03:11;;;;;;;1.90;1.60;;;;;;;;;;5009354;28;20045;-78
2021/07/06 08:05:36;;;;;;;1.85;1.75;;;;;;;;;;5009509;28;20026;-79
2021/07/06 08:08:03;;;;;;;5.32;2.58;;;;;;;;;;5010828;28;20377;-82
2021/07/06 08:10:28;;;;;;;1.80;1.48;;;;;;;;;;5009372;28;20405;-78
2021/07/06 08:12:54;;;;;;;3.88;1.70;;;;;;;;;;5008677;28;20022;-79
2021/07/06 08:15:19;;;;;;;1.98;1.20;;;;;;;;;;5010881;28;20030;-80
2021/07/06 08:17:45;;;;;;;3.42;1.52;;;;;;;;;;5009470;28;20026;-79
2021/07/06 08:20:11;;;;;;;2.17;1.50;;;;;;;;;;5010282;28;20048;-79
2021/07/06 08:22:37;;;;;;;1.33;1.20;;;;;;;;;;5008784;28;20037;-80
2021/07/06 08:25:03;;;;;;;4.45;1.38;;;;;;;;;;5010067;28;20025;-81
2021/07/06 08:27:29;;;;;;;2.38;1.90;;;;;;;;;;5010093;28;20474;-79
2021/07/06 08:29:54;;;;;;;2.75;1.58;;;;;;;;;;5010861;28;20041;-80
2021/07/06 08:32:20;;;;;;;2.45;1.50;;;;;;;;;;5010092;28;20393;-80
2021/07/06 08:34:45;;;;;;;1.42;1.30;;;;;;;;;;5008960;28;20045;-81
2021/07/06 08:37:11;;;;;;;1.85;1.23;;;;;;;;;;5010071;28;20156;-80
2021/07/06 08:39:36;;;;;;;2.50;1.35;;;;;;;;;;5010063;28;20025;-79
2021/07/06 08:42:05;;;;;;;2.03;1.25;;;;;;;;;;5010279;28;20609;-79
2021/07/06 08:44:31;;;;;;;4.07;1.77;;;;;;;;;;5009931;28;20473;-78
2021/07/06 08:47:00;;;;;;;5.50;2.13;;;;;;;;;;5008526;28;20033;-79
2021/07/06 08:49:26;;;;;;;5.13;1.13;;;;;;;;;;5009972;28;20033;-80
2021/07/06 08:51:52;;;;;;;2.63;1.20;;;;;;;;;;5027918;28;20429;-79
2021/07/06 08:54:19;;;;;;;1.52;1.42;;;;;;;;;;5018266;28;20470;-79
2021/07/06 08:56:44;;;;;;;4.65;2.85;;;;;;;;;;5010824;28;20490;-80
2021/07/06 08:59:10;;;;;;;2.10;1.15;;;;;;;;;;5010106;28;20045;-79
2021/07/06 09:01:35;;;;;;;1.85;1.42;;;;;;;;;;5010000;28;20037;-80
2021/07/06 09:04:03;;;;;;;1.38;1.23;;;;;;;;;;5009966;28;20030;-79
2021/07/06 09:06:34;;;;;;;2.42;1.48;;;;;;;;;;5009966;28;20497;-80
2021/07/06 09:09:19;;;;;;;2.05;1.25;;;;;;;;;;5011219;28;20053;-79
2021/07/06 09:11:47;;;;;;;3.30;1.48;;;;;;;;;;5009204;28;20371;-78
2021/07/06 09:14:14;;;;;;;1.30;1.13;;;;;;;;;;5010263;28;20497;-81
2021/07/06 09:16:40;;;;;;;4.25;1.60;;;;;;;;;;5009769;28;20053;-79
2021/07/06 09:19:26;;;;;;;2.03;1.42;;;;;;;;;;5009945;28;20115;-80
2021/07/06 09:22:10;;;;;;;6.38;4.35;;;;;;;;;;5008385;28;20026;-79
2021/07/06 09:24:37;;;;;;;6.82;1.75;;;;;;;;;;5008997;28;20018;-80
2021/07/06 09:27:28;;;;;;;2.45;1.50;;;;;;;;;;5009295;28;20030;-79
2021/07/06 09:30:23;;;;;;;5.18;1.58;;;;;;;;;;5008094;28;20052;-79
2021/07/06 09:32:51;;;;;;;4.20;1.50;;;;;;;;;;5008033;28;20042;-78
2021/07/06 09:35:25;;;;;;;1.48;1.00;;;;;;;;;;5007357;28;20030;-80
2021/07/06 09:38:02;;;;;;;4.65;1.30;;;;;;;;;;5007783;28;20029;-80
2021/07/06 09:40:30;;;;;;;2.15;1.70;;;;;;;;;;5009080;28;20485;-79
2021/07/06 09:43:20;;;;;;;2.28;1.65;;;;;;;;;;5024292;28;20441;-81
2021/07/06 09:46:05;;;;;;;5.70;1.83;;;;;;;;;;5009950;28;20087;-80
2021/07/06 09:48:32;;;;;;;5.18;1.85;;;;;;;;;;5009318;28;20090;-81
2021/07/06 09:51:14;;;;;;;2.88;1.30;;;;;;;;;;5008258;28;20034;-79
2021/07/06 09:53:40;;;;;;;2.40;1.50;;;;;;;;;;5008045;28;20557;-79
2021/07/06 09:56:15;;;;;;;2.13;1.58;;;;;;;;;;5007722;28;20175;-78
2021/07/06 09:59:00;;;;;;;1.70;1.60;;;;;;;;;;5007479;28;20050;-80
2021/07/06 10:01:27;;;;;;;2.30;1.60;;;;;;;;;;5009347;28;20056;-78
2021/07/06 10:03:54;;;;;;;4.03;1.60;;;;;;;;;;5007614;28;20052;-79
2021/07/06 10:06:22;;;;;;;2.20;1.30;;;;;;;;;;5007720;28;20037;-78
2021/07/06 10:08:49;;;;;;;2.67;1.40;;;;;;;;;;5007605;28;20413;-79
2021/07/06 10:11:15;;;;;;;3.45;1.50;;;;;;;;;;5008691;28;20041;-79
2021/07/06 10:13:41;;;;;;;3.85;1.85;;;;;;;;;;5009592;28;20026;-80
2021/07/06 10:16:06;;;;;;;3.45;1.30;;;;;;;;;;5008278;28;20030;-79
2021/07/06 10:18:33;;;;;;;2.20;1.17;;;;;;;;;;5008927;28;20026;-80
2021/07/06 10:21:00;;;;;;;2.42;1.52;;;;;;;;;;5008932;28;20021;-81
2021/07/06 10:23:26;;;;;;;3.40;1.27;;;;;;;;;;5008622;28;20049;-80
2021/07/06 10:25:58;;;;;;;1.48;1.38;;;;;;;;;;5007094;28;20066;-79
2021/07/06 10:28:26;;;;;;;1.85;1.10;;;;;;;;;;5008349;28;20072;-80
2021/07/06 10:30:52;;;;;;;7.53;1.70;;;;;;;;;;5008732;28;20033;-80
2021/07/06 10:33:33;;;;;;;7.47;1.60;;;;;;;;;;5007327;28;20040;-79
2021/07/06 10:36:01;;;;;;;1.98;1.75;;;;;;;;;;5010632;28;20029;-80
2021/07/06 10:38:26;;;;;;;2.17;1.50;;;;;;;;;;5012070;28;20050;-80
2021/07/06 10:40:53;;;;;;;2.30;1.65;;;;;;;;;;5012254;28;20452;-78
2021/07/06 10:43:37;;;;;;;2.78;1.23;;;;;;;;;;5011816;28;20022;-79
2021/07/06 10:46:21;;;;;;;4.95;1.50;;;;;;;;;;5027059;28;20026;-78
2021/07/06 10:49:15;;;;;;;2.83;2.00;;;;;;;;;;5026953;28;20126;-80
2021/07/06 10:51:41;;;;;;;6.18;1.48;;;;;;;;;;5010691;28;20025;-81
2021/07/06 10:54:16;;;;;;;2.67;1.90;;;;;;;;;;5027320;28;20032;-80
2021/07/06 10:56:53;;;;;;;6.75;1.45;;;;;;;;;;5010503;28;20112;-80
2021/07/06 10:59:23;;;;;;;6.03;2.53;;;;;;;;;;5011613;28;20072;-79
2021/07/06 11:01:48;;;;;;;1.92;1.52;;;;;;;;;;5011922;28;20092;-80
2021/07/06 11:04:36;;;;;;;2.60;1.50;;;;;;;;;;5011683;28;20536;-79
2021/07/06 11:07:06;;;;;;;2.58;1.50;;;;;;;;;;5011412;28;20516;-79
2021/07/06 11:09:35;;;;;;;6.30;2.13;;;;;;;;;;5009996;28;20037;-80
2021/07/06 11:12:21;;;;;;;1.55;1.25;;;;;;;;;;5026581;28;20041;-80
2021/07/06 11:14:49;;;;;;;1.60;1.50;;;;;;;;;;5010197;28;20018;-80
2021/07/06 11:17:31;;;;;;;17.80;2.33;;;;;;;;;;5010662;28;20029;-79
2021/07/06 11:19:59;;;;;;;3.45;1.23;;;;;;;;;;5010266;28;20022;-80
2021/07/06 11:22:45;;;;;;;2.40;1.13;;;;;;;;;;5009902;28;20029;-80
2021/07/06 11:25:29;;;;;;;2.15;1.15;;;;;;;;;;5010014;28;20034;-78
2021/07/06 11:28:12;;;;;;;2.67;1.20;;;;;;;;;;5011364;28;20521;-81
2021/07/06 11:30:45;;;;;;;5.10;1.40;;;;;;;;;;5011909;28;20026;-79
2021/07/06 11:33:22;;;;;;;2.40;1.30;;;;;;;;;;5011916;28;20068;-79
2021/07/06 11:35:51;;;;;;;7.03;1.30;;;;;;;;;;5011915;28;20411;-80
2021/07/06 11:38:18;;;;;;;2.22;1.17;;;;;;;;;;5011220;28;20382;-79
2021/07/06 11:40:47;;;;;;;1.75;1.10;;;;;;;;;;5009818;28;20037;-80
2021/07/06 11:43:14;;;;;;;4.63;1.38;;;;;;;;;;5009898;28;20057;-79
2021/07/06 11:45:40;;;;;;;4.95;1.55;;;;;;;;;;5011088;28;20029;-79
2021/07/06 11:48:17;;;;;;;4.95;1.33;;;;;;;;;;5010313;28;20435;-81
2021/07/06 11:50:45;;;;;;;1.48;1.30;;;;;;;;;;5010086;28;20038;-80
2021/07/06 11:53:12;;;;;;;1.77;1.38;;;;;;;;;;5010880;28;20033;-75
2021/07/06 11:55:39;;;;;;;3.33;1.08;;;;;;;;;;5010871;28;20045;-81
2021/07/06 11:58:08;;;;;;;2.53;1.15;;;;;;;;;;5009449;28;20046;-80
2021/07/06 12:00:36;;;;;;;3.38;1.23;;;;;;;;;;5010681;28;20025;-80
2021/07/06 12:03:15;;;;;;;3.13;1.10;;;;;;;;;;5009521;28;20044;-80
2021/07/06 12:05:42;;;;;;;2.20;1.20;;;;;;;;;;5009232;28;20509;-80
2021/07/06 12:08:24;;;;;;;1.40;1.30;;;;;;;;;;5010456;28;20049;-79
2021/07/06 12:11:01;;;;;;;1.48;1.30;;;;;;;;;;5010962;28;20025;-80
2021/07/06 12:13:49;;;;;;;2.70;1.05;;;;;;;;;;5010513;28;20052;-80
2021/07/06 12:16:23;;;;;;;14.65;2.55;;;;;;;;;;5010402;28;20501;-80
2021/07/06 12:18:55;;;;;;;2.17;1.23;;;;;;;;;;5010535;28;20131;-79
2021/07/06 12:21:45;;;;;;;2.80;1.10;;;;;;;;;;5010679;28;20059;-80
2021/07/06 12:24:13;;;;;;;3.45;1.15;;;;;;;;;;5005044;28;20121;-80
2021/07/06 12:26:43;;;;;;;3.85;1.67;;;;;;;;;;5009015;28;20037;-80
2021/07/06 12:29:08;;;;;;;4.25;1.30;;;;;;;;;;5010187;28;20021;-80
2021/07/06 12:31:36;;;;;;;1.92;1.15;;;;;;;;;;5010121;28;20084;-80
2021/07/06 12:34:14;;;;;;;3.47;1.40;;;;;;;;;;5010169;28;20029;-80
2021/07/06 12:36:58;;;;;;;3.05;1.17;;;;;;;;;;5010641;28;20021;-81
2021/07/06 12:39:34;;;;;;;1.63;1.00;;;;;;;;;;5010129;28;20108;-80
2021/07/06 12:42:04;;;;;;;2.05;1.35;;;;;;;;;;5008966;28;20030;-81
2021/07/06 12:44:32;;;;;;;2.13;1.30;;;;;;;;;;5008511;28;20029;-81
2021/07/06 12:47:32;;;;;;;5.65;1.40;;;;;;;;;;5009677;28;20030;-81
2021/07/06 12:50:02;;;;;;;3.58;1.50;;;;;;;;;;5025342;28;20357;-81
2021/07/06 12:52:35;;;;;;;2.65;1.23;;;;;;;;;;5024690;28;20026;-82
2021/07/06 12:55:17;;;;;;;4.68;1.30;;;;;;;;;;5008832;28;20355;-80
2021/07/06 12:57:45;;;;;;;6.15;1.55;;;;;;;;;;5008166;28;20053;-80
2021/07/06 13:00:14;;;;;;;4.15;1.73;;;;;;;;;;5009805;28;20018;-80
2021/07/06 13:02:41;;;;;;;1.05;1.02;;;;;;;;;;5008675;28;20077;-79
2021/07/06 13:05:18;;;;;;;7.03;1.40;;;;;;;;;;5008444;28;20068;-77
2021/07/06 13:07:46;;;;;;;2.38;1.00;;;;;;;;;;5008327;28;20030;-79
2021/07/06 13:10:20;;;;;;;2.20;0.90;;;;;;;;;;5010254;28;20120;-80
2021/07/06 13:13:03;;;;;;;3.13;0.95;;;;;;;;;;5009690;28;20022;-80
2021/07/06 13:15:35;;;;;;;1.38;1.00;;;;;;;;;;5009463;28;20021;-80
2021/07/06 13:18:01;;;;;;;14.98;2.28;;;;;;;;;;5009521;28;20092;-80
2021/07/06 13:20:27;;;;;;;2.05;0.98;;;;;;;;;;5008208;28;20445;-82
2021/07/06 13:22:55;;;;;;;2.03;0.98;;;;;;;;;;5010071;28;20022;-81
2021/07/06 13:25:22;;;;;;;8.00;1.23;;;;;;;;;;5008065;28;20035;-81
2021/07/06 13:27:47;;;;;;;4.80;1.30;;;;;;;;;;5007790;28;20041;-80
2021/07/06 13:30:13;;;;;;;2.42;0.98;;;;;;;;;;5009557;28;20030;-81
2021/07/06 13:32:42;;;;;;;2.58;0.80;;;;;;;;;;5009995;28;20026;-81
2021/07/06 13:35:09;;;;;;;2.35;0.88;;;;;;;;;;5009719;28;20030;-79
2021/07/06 13:37:36;;;;;;;3.70;1.20;;;;;;;;;;5024520;28;20034;-80
2021/07/06 13:40:04;;;;;;;0.98;0.93;;;;;;;;;;5008652;28;20049;-79
2021/07/06 13:42:29;;;;;;;1.52;1.38;;;;;;;;;;5007673;28;20033;-79
2021/07/06 13:44:55;;;;;;;1.23;0.80;;;;;;;;;;5009232;28;20037;-80
2021/07/06 13:47:20;;;;;;;7.10;1.33;;;;;;;;;;5008910;28;20038;-80
2021/07/06 13:49:46;;;;;;;1.17;1.08;;;;;;;;;;5009383;28;20053;-80
2021/07/06 13:52:11;;;;;;;3.97;1.17;;;;;;;;;;5009246;28;20445;-79
2021/07/06 13:54:39;;;;;;;1.10;1.00;;;;;;;;;;5008654;28;20022;-80
2021/07/06 13:57:09;;;;;;;4.93;1.00;;;;;;;;;;5024185;28;20038;-81
2021/07/06 13:59:35;;;;;;;0.93;0.80;;;;;;;;;;5008781;28;20639;-79
2021/07/06 14:02:01;;;;;;;3.97;1.33;;;;;;;;;;5007637;28;20036;-79
2021/07/06 14:04:28;;;;;;;2.60;0.88;;;;;;;;;;5007512;28;20433;-79
2021/07/06 14:06:54;;;;;;;1.73;0.98;;;;;;;;;;5007476;28;20030;-79
2021/07/06 14:09:20;;;;;;;3.60;0.90;;;;;;;;;;5007060;28;20068;-79
2021/07/06 14:11:45;;;;;;;1.00;0.75;;;;;;;;;;5012148;28;20429;-79
2021/07/06 14:14:11;;;;;;;8.43;0.98;;;;;;;;;;5012681;28;20470;-80
2021/07/06 14:16:37;;;;;;;2.78;0.90;;;;;;;;;;5011146;28;20144;-80
2021/07/06 14:19:02;;;;;;;3.28;1.10;;;;;;;;;;5012725;28;20061;-79
2021/07/06 14:21:28;;;;;;;1.10;0.90;;;;;;;;;;5012759;28;20064;-79
2021/07/06 14:23:53;;;;;;;1.90;1.02;;;;;;;;;;5012778;28;20033;-80
2021/07/06 14:26:19;;;;;;;1.10;0.98;;;;;;;;;;5012747;28;20022;-80
2021/07/06 14:28:49;;;;;;;0.82;0.60;;;;;;;;;;5011098;28;20030;-81
2021/07/06 14:31:15;;;;;;;8.70;1.40;;;;;;;;;;5012587;28;20561;-80
2021/07/06 14:33:40;;;;;;;7.22;3.72;;;;;;;;;;5012196;28;20560;-81
2021/07/06 14:36:06;;;;;;;3.55;0.95;;;;;;;;;;5012583;28;20037;-79
2021/07/06 14:38:32;;;;;;;1.25;0.93;;;;;;;;;;5010643;28;20018;-80
2021/07/06 14:40:57;;;;;;;9.68;1.60;;;;;;;;;;5012806;28;20466;-79
2021/07/06 14:43:23;;;;;;;1.42;1.33;;;;;;;;;;5011085;28;20125;-78
2021/07/06 14:45:49;;;;;;;1.20;1.10;;;;;;;;;;5011316;28;20075;-79